ADDS METAR Data INFO
IDs: Format: Raw Decoded Include TAF

Data at: 2049 UTC 24 Jun 2018

PAGA 241956Z AUTO 25006KT 10SM FEW039 16/07 A3001 RMK AO2 SLP165 T01560067
PAGA 241856Z AUTO 00000KT 10SM OVC070 13/06 A3003 RMK AO2 SLP171 T01330056
PAGA 241756Z AUTO 03004KT 10SM OVC070 13/06 A3004 RMK AO2 SLP173 T01330056 10133 20078 58004
PAGA 241656Z AUTO 00000KT 10SM OVC070 12/06 A3005 RMK AO2 SLP177 T01170061
PAGA 241556Z AUTO 00000KT 10SM SCT075 11/06 A3005 RMK AO2 SLP179 T01060061
PAGA 241456Z AUTO 00000KT 10SM CLR 10/05 A3005 RMK AO2 SLP178 T01000050 58000
PAGA 241356Z AUTO 00000KT 10SM CLR 08/04 A3005 RMK AO2 SLP179 T00780039
PAGA 241256Z AUTO 36003KT 10SM CLR 08/03 A3005 RMK AO2 SLP179 T00780033
PAGA 241156Z AUTO 34003KT 10SM CLR 09/04 A3005 RMK AO2 SLP178 T00940039 10161 20094 53003
PAGA 241056Z AUTO 34003KT 10SM FEW070 11/05 A3005 RMK AO2 SLP177 T01110050
PAGA 240956Z AUTO 33004KT 10SM OVC070 11/07 A3005 RMK AO2 SLP177 T01110067
PAGA 240856Z AUTO 31003KT 10SM SCT060 SCT075 BKN085 13/06 A3005 RMK AO2 SLP176 T01280061 401830072 53002
PAGA 240756Z AUTO 33003KT 10SM CLR 13/06 A3004 RMK AO2 SLP174 T01280056
PAGA 240556Z AUTO 35007KT 10SM OVC090 16/05 A3004 RMK AO2 SLP174 T01610050 10183 20161 55001
PAGA 240456Z AUTO 33005KT 10SM OVC085 17/04 A3003 RMK AO2 SLP170 T01670044
PAGA 240356Z AUTO 29008KT 10SM BKN090 18/04 A3004 RMK AO2 SLP172 T01830039
PAGA 240256Z AUTO 30004KT 10SM SCT090 17/04 A3004 RMK AO2 SLP175 T01720039 56008
PAGA 240156Z AUTO VRB05KT 10SM BKN080 17/04 A3005 RMK AO2 SLP178 T01720039
PAGA 240056Z AUTO 29007KT 10SM FEW060 SCT085 18/04 A3006 RMK AO2 SLP180 T01780039
PAGA 232356Z AUTO VRB03KT 10SM FEW055 OVC080 17/03 A3007 RMK AO2 SLP184 T01720028 10172 20128 58008
PAGA 232256Z AUTO 32003KT 10SM OVC070 16/04 A3008 RMK AO2 SLP189 T01610039
PAGA 232156Z AUTO VRB03KT 10SM SCT050 17/03 A3009 RMK AO2 SLP190 T01670033
PAGA 232056Z AUTO VRB05G15KT 10SM FEW065 16/04 A3009 RMK AO2 SLP192 T01610039 58004
PAGA 231856Z AUTO VRB03KT 10SM OVC070 14/06 A3011 RMK AO2 SLP196 T01390056
PAGA 231756Z AUTO 17003KT 10SM FEW045 OVC065 13/07 A3011 RMK AO2 SLP195 T01280067 10133 20072 51004
PAGA 231656Z AUTO 00000KT 10SM FEW070 13/07 A3011 RMK AO2 SLP196 T01280072
PAGA 231556Z AUTO 29003KT 10SM BKN050 11/07 A3010 RMK AO2 SLP194 T01110067
PAGA 231456Z AUTO 27003KT 10SM BKN048 10/08 A3009 RMK AO2 SLP192 T01000078 51010
PAGA 231356Z AUTO 00000KT 10SM SCT050 08/07 A3008 RMK AO2 SLP188 T00830072
PAGA 231256Z AUTO 00000KT 10SM CLR 09/07 A3008 RMK AO2 SLP187 T00890072
PAGA 231156Z AUTO 29003KT 10SM CLR 09/07 A3006 RMK AO2 SLP182 T00890072 10178 20089 51014
PAGA 231056Z AUTO 28003KT 10SM CLR 09/08 A3005 RMK AO2 SLP177 T00940078
PAGA 230956Z AUTO 26003KT 10SM BKN100 12/08 A3004 RMK AO2 SLP173 T01170078
PAGA 230856Z AUTO 28004KT 10SM OVC100 13/09 A3002 RMK AO2 SLP168 T01280089 401940128 53017